createdAt,value
2018-09-10T00:00:34.806Z,92.00
2018-09-10T00:03:03.914Z,92.10
2018-09-10T00:05:32.974Z,92.10
2018-09-10T00:08:01.927Z,92.20
2018-09-10T00:10:30.916Z,92.40
2018-09-10T00:12:59.936Z,92.80
2018-09-10T00:15:29.034Z,93.20
2018-09-10T00:17:58.097Z,93.40
2018-09-10T00:20:27.113Z,93.50
2018-09-10T00:22:56.312Z,93.50
2018-09-10T00:25:25.352Z,93.70
2018-09-10T00:27:54.360Z,93.80
2018-09-10T00:30:23.398Z,93.80
2018-09-10T00:32:52.403Z,93.80
2018-09-10T00:35:22.424Z,94.00
2018-09-10T00:37:51.460Z,94.20
2018-09-10T00:40:20.470Z,94.00
2018-09-10T00:42:49.813Z,93.90
2018-09-10T00:45:18.905Z,94.30
2018-09-10T00:47:47.929Z,93.90
2018-09-10T00:50:17.025Z,94.10
2018-09-10T00:52:46.030Z,94.20
2018-09-10T00:55:15.099Z,94.50
2018-09-10T00:57:44.121Z,94.50
2018-09-10T01:00:13.186Z,94.40
2018-09-10T01:02:42.270Z,94.50
2018-09-10T01:05:11.510Z,94.70
2018-09-10T01:07:40.567Z,94.70
2018-09-10T01:10:09.658Z,94.50
2018-09-10T01:12:41.062Z,94.50
2018-09-10T01:15:10.996Z,94.70
2018-09-10T01:17:40.006Z,94.60
2018-09-10T01:20:09.032Z,94.70
2018-09-10T01:22:38.083Z,94.90
2018-09-10T01:25:07.132Z,94.80
2018-09-10T01:27:36.189Z,95.30
2018-09-10T01:30:05.625Z,95.20
2018-09-10T01:32:34.658Z,95.40
2018-09-10T01:35:04.807Z,95.30
2018-09-10T01:37:34.824Z,95.30
2018-09-10T01:40:04.197Z,95.40
2018-09-10T01:42:33.599Z,95.70
2018-09-10T01:45:02.791Z,95.70
2018-09-10T01:47:31.938Z,95.80
2018-09-10T01:50:00.979Z,96.50
2018-09-10T01:52:29.982Z,96.70
2018-09-10T01:54:59.005Z,96.40
2018-09-10T01:57:28.133Z,96.20
2018-09-10T01:59:57.783Z,96.40
2018-09-10T02:02:26.869Z,97.00
2018-09-10T02:04:55.966Z,97.00
2018-09-10T02:07:24.995Z,97.10
2018-09-10T02:09:54.085Z,97.00
2018-09-10T02:12:23.996Z,97.10
2018-09-10T02:14:53.811Z,97.10
2018-09-10T02:17:23.224Z,97.30
2018-09-10T02:19:52.285Z,97.30
2018-09-10T02:22:21.784Z,97.20
2018-09-10T02:24:51.100Z,97.30
2018-09-10T02:27:20.115Z,97.20
2018-09-10T02:29:49.365Z,97.30
2018-09-10T02:32:18.397Z,97.30
2018-09-10T02:34:47.468Z,97.20
2018-09-10T02:37:16.523Z,97.10
2018-09-10T02:39:45.616Z,97.10
2018-09-10T02:42:14.658Z,97.10
2018-09-10T02:44:43.890Z,97.20
2018-09-10T02:47:12.940Z,97.20
2018-09-10T02:49:41.937Z,97.30
2018-09-10T02:52:10.970Z,97.40
2018-09-10T02:54:40.021Z,97.70
2018-09-10T02:57:09.306Z,97.40
2018-09-10T02:59:38.377Z,97.40
2018-09-10T03:02:07.615Z,97.50
2018-09-10T03:04:36.703Z,97.80
2018-09-10T03:07:06.319Z,98.00
2018-09-10T03:09:35.684Z,99.90
2018-09-10T03:12:04.732Z,99.90
2018-09-10T03:14:33.771Z,99.90
2018-09-10T03:17:02.848Z,99.90
2018-09-10T03:19:31.814Z,99.90
2018-09-10T03:22:01.435Z,99.90
2018-09-10T03:24:30.518Z,99.90
2018-09-10T03:26:59.560Z,99.40
2018-09-10T03:29:28.565Z,99.00
2018-09-10T03:31:57.587Z,99.00
2018-09-10T03:34:26.596Z,99.10
2018-09-10T03:36:55.808Z,99.20
2018-09-10T03:39:24.865Z,99.30
2018-09-10T03:41:54.000Z,99.20
2018-09-10T03:44:22.983Z,99.40
2018-09-10T03:46:51.975Z,99.40
2018-09-10T03:49:21.389Z,99.20
2018-09-10T03:51:50.380Z,99.20
2018-09-10T03:54:19.441Z,99.20
2018-09-10T03:56:48.515Z,99.10
2018-09-10T04:02:52.893Z,99.20
2018-09-10T04:05:22.101Z,99.00
2018-09-10T04:07:51.121Z,99.40
2018-09-10T04:10:20.217Z,99.50
2018-09-10T04:12:49.243Z,99.40
2018-09-10T04:15:18.637Z,99.70
2018-09-10T04:17:48.639Z,99.60
2018-09-10T04:20:17.700Z,99.90
2018-09-10T04:22:46.778Z,99.90
2018-09-10T04:25:15.768Z,99.90
2018-09-10T04:27:44.803Z,99.90
2018-09-10T04:30:15.602Z,99.90
2018-09-10T04:32:44.682Z,99.90
2018-09-10T04:35:13.789Z,99.90
2018-09-10T04:37:43.477Z,99.90
2018-09-10T04:40:12.543Z,99.90
2018-09-10T04:42:41.558Z,99.80
2018-09-10T04:45:10.654Z,99.90
2018-09-10T04:47:39.672Z,99.90
2018-09-10T04:50:09.046Z,99.90
2018-09-10T04:52:38.324Z,99.90
2018-09-10T04:55:07.427Z,99.90
2018-09-10T04:57:36.475Z,99.90
2018-09-10T05:00:05.802Z,99.90
2018-09-10T05:02:35.299Z,99.90
2018-09-10T05:05:05.203Z,99.90
2018-09-10T05:07:34.467Z,99.90
2018-09-10T05:10:03.804Z,99.90
2018-09-10T05:12:33.008Z,99.90
2018-09-10T05:15:02.047Z,99.90
2018-09-10T05:17:31.054Z,99.90
2018-09-10T05:20:00.099Z,99.90
2018-09-10T05:22:29.247Z,99.90
2018-09-10T05:24:58.407Z,99.90
2018-09-10T05:27:27.482Z,99.90
2018-09-10T05:29:57.752Z,99.90
2018-09-10T05:32:26.783Z,99.90
2018-09-10T05:34:55.759Z,99.90
2018-09-10T05:37:24.797Z,99.80
2018-09-10T05:39:53.820Z,99.80
2018-09-10T05:42:22.859Z,99.80
2018-09-10T05:44:51.906Z,99.60
2018-09-10T05:47:21.070Z,99.80
2018-09-10T05:49:50.939Z,99.50
2018-09-10T05:52:20.086Z,99.40
2018-09-10T05:54:49.122Z,99.30
2018-09-10T05:57:18.130Z,99.20
2018-09-10T05:59:47.228Z,99.10
2018-09-10T06:02:16.257Z,99.10
2018-09-10T06:04:45.398Z,99.00
2018-09-10T06:07:20.999Z,98.90
2018-09-10T06:09:50.004Z,98.90
2018-09-10T06:12:19.415Z,99.00
2018-09-10T06:14:48.561Z,98.70
2018-09-10T06:17:17.691Z,98.80
2018-09-10T06:19:46.742Z,98.80
2018-09-10T06:22:15.796Z,98.70
2018-09-10T06:24:44.838Z,99.90
2018-09-10T06:27:13.880Z,99.90
2018-09-10T06:29:43.287Z,99.90
2018-09-10T06:32:12.335Z,99.90
2018-09-10T06:34:41.610Z,99.80
2018-09-10T06:37:10.618Z,99.80
2018-09-10T06:39:39.832Z,99.80
2018-09-10T06:42:08.922Z,99.70
2018-09-10T06:44:37.986Z,99.40
2018-09-10T06:47:07.069Z,99.50
2018-09-10T06:49:36.271Z,99.40
2018-09-10T06:52:05.990Z,99.30
2018-09-10T06:54:35.136Z,99.10
2018-09-10T06:57:04.511Z,99.20
2018-09-10T06:59:33.649Z,99.10
2018-09-10T07:02:03.241Z,98.70
2018-09-10T07:04:32.301Z,97.20
2018-09-10T07:07:01.786Z,97.10
2018-09-10T07:09:30.881Z,96.90
2018-09-10T07:11:59.899Z,96.90
2018-09-10T07:14:28.893Z,97.20
2018-09-10T07:16:57.929Z,97.10
2018-09-10T07:19:26.978Z,97.00
2018-09-10T07:21:56.026Z,96.70
2018-09-10T07:24:25.035Z,96.30
2018-09-10T07:26:55.329Z,96.10
2018-09-10T07:29:24.345Z,95.90
2018-09-10T07:31:53.361Z,95.80
2018-09-10T07:34:22.385Z,95.70
2018-09-10T07:36:51.582Z,95.70
2018-09-10T07:39:20.665Z,95.40
2018-09-10T07:41:49.782Z,95.20
2018-09-10T07:44:18.884Z,95.00
2018-09-10T07:46:48.099Z,94.90
2018-09-10T07:49:17.835Z,94.40
2018-09-10T07:51:46.888Z,94.10
2018-09-10T07:54:16.115Z,93.30
2018-09-10T07:56:45.183Z,92.60
2018-09-10T07:59:14.327Z,92.00
2018-09-10T08:01:43.534Z,91.30
2018-09-10T08:04:12.525Z,91.00
2018-09-10T08:06:41.599Z,90.70
2018-09-10T08:09:10.999Z,90.40
2018-09-10T08:11:40.117Z,90.20
2018-09-10T08:14:09.183Z,90.40
2018-09-10T08:16:38.267Z,90.40
2018-09-10T08:19:07.889Z,90.40
2018-09-10T08:21:36.945Z,90.50
2018-09-10T08:24:06.233Z,90.40
2018-09-10T08:26:35.396Z,90.00
2018-09-10T08:29:04.816Z,90.00
2018-09-10T08:31:34.245Z,89.50
2018-09-10T08:34:03.262Z,88.90
2018-09-10T08:36:32.790Z,88.60
2018-09-10T08:39:01.919Z,88.00
2018-09-10T08:41:31.076Z,87.60
2018-09-10T08:44:00.236Z,87.10
2018-09-10T08:46:29.272Z,86.70
2018-09-10T08:48:58.712Z,86.20
2018-09-10T08:51:27.757Z,85.30
2018-09-10T08:53:56.944Z,84.70
2018-09-10T08:56:26.408Z,84.60
2018-09-10T08:58:56.491Z,83.70
2018-09-10T09:01:25.520Z,83.40
2018-09-10T09:03:54.540Z,82.30
2018-09-10T09:06:23.706Z,81.00
2018-09-10T09:08:52.861Z,80.60
2018-09-10T09:11:21.941Z,79.80
2018-09-10T09:13:50.965Z,80.30
2018-09-10T09:16:19.999Z,80.10
2018-09-10T09:18:49.061Z,79.70
2018-09-10T09:21:18.050Z,78.50
2018-09-10T09:23:47.106Z,76.90
2018-09-10T09:26:16.310Z,75.00
2018-09-10T09:28:45.528Z,75.60
2018-09-10T09:31:14.551Z,74.40
2018-09-10T09:33:43.558Z,73.50
2018-09-10T09:36:17.887Z,71.80
2018-09-10T09:38:52.676Z,71.40
2018-09-10T09:41:26.908Z,70.20
2018-09-10T09:44:01.432Z,69.70
2018-09-10T09:46:30.483Z,70.20
2018-09-10T09:48:59.451Z,69.70
2018-09-10T09:51:28.468Z,70.90
2018-09-10T09:53:57.468Z,70.20
2018-09-10T09:56:26.527Z,69.50
2018-09-10T09:58:55.789Z,69.50
2018-09-10T10:01:30.235Z,68.10
2018-09-10T10:04:03.516Z,66.90
2018-09-10T10:06:32.803Z,66.50
2018-09-10T10:09:01.783Z,65.30
2018-09-10T10:11:30.926Z,65.30
2018-09-10T10:14:00.937Z,64.30
2018-09-10T10:16:30.041Z,63.90
2018-09-10T10:18:59.190Z,64.50
2018-09-10T10:21:28.230Z,63.40
2018-09-10T10:23:57.610Z,62.50
2018-09-10T10:26:26.633Z,61.70
2018-09-10T10:28:55.690Z,60.70
2018-09-10T10:31:24.688Z,60.70
2018-09-10T10:33:53.707Z,61.10
2018-09-10T10:36:22.721Z,61.40
2018-09-10T10:38:51.756Z,62.10
2018-09-10T10:41:20.906Z,62.30
2018-09-10T10:43:49.958Z,61.60
2018-09-10T10:46:19.087Z,61.40
2018-09-10T10:48:48.385Z,60.50
2018-09-10T10:51:17.743Z,60.60
2018-09-10T10:53:46.736Z,59.50
2018-09-10T10:56:15.948Z,59.30
2018-09-10T10:58:44.962Z,58.20
2018-09-10T11:01:13.956Z,58.60
2018-09-10T11:03:42.995Z,58.60
2018-09-10T11:06:12.588Z,57.30
2018-09-10T11:08:42.182Z,55.00
2018-09-10T11:11:11.743Z,51.90
2018-09-10T11:13:41.364Z,48.30
2018-09-10T11:16:10.939Z,45.00
2018-09-10T11:18:40.500Z,42.00
2018-09-10T11:21:10.074Z,40.80
2018-09-10T11:23:39.861Z,39.40
2018-09-10T11:26:09.502Z,38.90
2018-09-10T11:28:39.250Z,37.30
2018-09-10T11:31:09.019Z,38.40
2018-09-10T11:33:38.756Z,37.90
2018-09-10T11:36:08.482Z,38.10
2018-09-10T11:38:38.040Z,37.70
2018-09-10T11:41:07.885Z,37.50
2018-09-10T11:43:37.467Z,36.10
2018-09-10T11:46:07.098Z,35.90
2018-09-10T11:48:36.713Z,36.90
2018-09-10T11:51:06.654Z,36.80
2018-09-10T11:53:36.218Z,36.10
2018-09-10T11:56:06.284Z,35.50
2018-09-10T11:58:35.859Z,36.80
2018-09-10T12:01:05.526Z,38.00
2018-09-10T12:03:35.339Z,38.10
2018-09-10T12:06:04.947Z,36.00
2018-09-10T12:08:34.569Z,34.70
2018-09-10T12:11:03.988Z,33.00
2018-09-10T12:13:33.707Z,32.20
2018-09-10T12:16:03.426Z,33.60
2018-09-10T12:18:33.289Z,34.50
2018-09-10T12:21:02.888Z,35.90
2018-09-10T12:23:32.502Z,37.00
2018-09-10T12:26:02.124Z,39.00
2018-09-10T12:28:31.962Z,39.90
2018-09-10T12:31:01.571Z,40.80
2018-09-10T12:33:31.310Z,41.50
2018-09-10T12:36:00.909Z,42.00
2018-09-10T12:38:30.482Z,42.80
2018-09-10T12:41:00.074Z,42.80
2018-09-10T12:43:29.628Z,43.70
2018-09-10T12:45:59.663Z,42.20
2018-09-10T12:48:29.261Z,42.60
2018-09-10T12:50:58.904Z,42.60
2018-09-10T12:53:28.775Z,42.60
2018-09-10T12:55:58.406Z,42.80
2018-09-10T12:58:28.005Z,43.60
2018-09-10T13:00:57.590Z,44.30
2018-09-10T13:03:27.282Z,44.40
2018-09-10T13:05:57.103Z,44.40
2018-09-10T13:08:26.727Z,44.60
2018-09-10T13:10:56.530Z,42.80
2018-09-10T13:13:26.138Z,42.60
2018-09-10T13:15:55.704Z,41.10
2018-09-10T13:18:25.322Z,39.00
2018-09-10T13:20:56.634Z,37.70
2018-09-10T13:23:26.207Z,36.40
2018-09-10T13:25:55.882Z,35.50
2018-09-10T13:28:25.805Z,34.60
2018-09-10T13:30:55.413Z,33.40
2018-09-10T13:33:25.006Z,33.90
2018-09-10T13:35:54.595Z,34.80
2018-09-10T13:38:24.551Z,37.10
2018-09-10T13:40:54.166Z,37.30
2018-09-10T13:43:23.779Z,35.00
2018-09-10T13:45:53.115Z,34.20
2018-09-10T13:48:22.758Z,34.30
2018-09-10T13:50:52.363Z,36.10
2018-09-10T13:53:21.994Z,37.00
2018-09-10T13:55:51.725Z,36.60
2018-09-10T13:58:21.345Z,36.60
2018-09-10T14:00:51.350Z,36.80
2018-09-10T14:03:21.051Z,38.90
2018-09-10T14:05:50.903Z,42.30
2018-09-10T14:08:20.838Z,43.30
2018-09-10T14:10:50.554Z,39.80
2018-09-10T14:13:20.067Z,34.80
2018-09-10T14:15:49.410Z,31.50
2018-09-10T14:18:18.758Z,30.00
2018-09-10T14:20:48.268Z,32.50
2018-09-10T14:23:17.858Z,35.50
2018-09-10T14:25:47.738Z,36.90
2018-09-10T14:28:17.356Z,38.00
2018-09-10T14:30:49.006Z,38.70
2018-09-10T14:33:18.609Z,38.70
2018-09-10T14:35:48.223Z,37.90
2018-09-10T14:38:17.783Z,37.60
2018-09-10T14:40:47.545Z,36.60
2018-09-10T14:43:17.152Z,34.90
2018-09-10T14:45:46.772Z,33.10
2018-09-10T14:48:16.126Z,31.60
2018-09-10T14:50:45.882Z,32.40
2018-09-10T14:53:15.466Z,34.80
2018-09-10T14:55:45.305Z,37.10
2018-09-10T14:58:14.952Z,39.80
2018-09-10T15:00:44.671Z,40.90
2018-09-10T15:03:14.279Z,42.00
2018-09-10T15:05:43.947Z,42.50
2018-09-10T15:08:13.830Z,43.50
2018-09-10T15:10:43.766Z,42.80
2018-09-10T15:13:13.369Z,41.20
2018-09-10T15:15:43.079Z,42.20
2018-09-10T15:18:12.646Z,43.10
2018-09-10T15:20:42.421Z,41.90
2018-09-10T15:23:12.010Z,41.70
2018-09-10T15:25:41.641Z,43.00
2018-09-10T15:28:11.219Z,44.20
2018-09-10T15:30:40.778Z,45.20
2018-09-10T15:33:10.444Z,47.00
2018-09-10T15:35:40.273Z,47.80
2018-09-10T15:38:09.945Z,48.40
2018-09-10T15:40:39.607Z,49.30
2018-09-10T15:43:09.380Z,48.80
2018-09-10T15:45:38.977Z,48.70
2018-09-10T15:48:08.661Z,49.30
2018-09-10T15:50:38.337Z,49.80
2018-09-10T15:53:07.932Z,49.60
2018-09-10T15:55:37.546Z,49.30
2018-09-10T15:58:07.190Z,49.60
2018-09-10T16:00:37.541Z,49.70
2018-09-10T16:03:07.164Z,49.40
2018-09-10T16:05:36.228Z,50.00
2018-09-10T16:08:05.819Z,51.00
2018-09-10T16:10:35.585Z,51.10
2018-09-10T16:13:04.699Z,51.30
2018-09-10T16:15:33.693Z,52.30
2018-09-10T16:18:02.752Z,52.40
2018-09-10T16:20:31.792Z,52.30
2018-09-10T16:23:01.443Z,52.40
2018-09-10T16:25:31.068Z,52.10
2018-09-10T16:28:00.653Z,51.50
2018-09-10T16:30:30.204Z,52.40
2018-09-10T16:32:59.227Z,52.90
2018-09-10T16:35:28.243Z,52.50
2018-09-10T16:37:58.140Z,53.00
2018-09-10T16:40:27.252Z,53.40
2018-09-10T16:42:56.284Z,52.60
2018-09-10T16:45:25.863Z,52.70
2018-09-10T16:47:55.680Z,52.00
2018-09-10T16:50:24.713Z,52.10
2018-09-10T16:52:53.931Z,52.60
2018-09-10T16:55:23.291Z,53.10
2018-09-10T16:57:52.309Z,53.80
2018-09-10T17:00:21.309Z,53.70
2018-09-10T17:02:50.387Z,53.80
2018-09-10T17:05:19.447Z,54.10
2018-09-10T17:07:48.538Z,54.40
2018-09-10T17:10:17.573Z,54.90
2018-09-10T17:12:46.598Z,55.30
2018-09-10T17:15:15.618Z,55.30
2018-09-10T17:17:44.650Z,55.30
2018-09-10T17:20:13.695Z,55.20
2018-09-10T17:22:42.774Z,55.60
2018-09-10T17:25:11.796Z,55.30
2018-09-10T17:27:40.925Z,54.40
2018-09-10T17:30:09.965Z,54.30
2018-09-10T17:32:39.206Z,54.60
2018-09-10T17:35:08.251Z,54.20
2018-09-10T17:37:37.249Z,54.20
2018-09-10T17:40:06.729Z,54.10
2018-09-10T17:42:35.886Z,54.50
2018-09-10T17:45:05.283Z,55.10
2018-09-10T17:47:34.318Z,56.80
2018-09-10T17:50:03.444Z,58.10
2018-09-10T17:52:32.489Z,59.20
2018-09-10T17:55:01.522Z,59.60
2018-09-10T17:57:30.601Z,60.00
2018-09-10T17:59:59.854Z,60.50
2018-09-10T18:02:29.056Z,60.90
2018-09-10T18:04:58.434Z,61.40
2018-09-10T18:07:27.588Z,62.10
2018-09-10T18:09:56.649Z,62.50
2018-09-10T18:12:25.675Z,63.10
2018-09-10T18:14:54.723Z,63.70
2018-09-10T18:17:23.714Z,64.10
2018-09-10T18:19:54.574Z,64.70
2018-09-10T18:22:23.571Z,65.10
2018-09-10T18:24:53.552Z,65.60
2018-09-10T18:27:22.793Z,66.10
2018-09-10T18:29:51.830Z,66.60
2018-09-10T18:32:20.933Z,67.10
2018-09-10T18:34:49.985Z,67.70
2018-09-10T18:37:19.004Z,68.10
2018-09-10T18:39:47.991Z,68.70
2018-09-10T18:42:17.021Z,69.10
2018-09-10T18:44:46.088Z,69.60
2018-09-10T18:47:15.084Z,70.10
2018-09-10T18:49:44.191Z,70.80
2018-09-10T18:52:13.242Z,72.30
2018-09-10T18:54:42.265Z,72.10
2018-09-10T18:57:11.704Z,72.90
2018-09-10T18:59:40.813Z,73.40
2018-09-10T19:02:09.839Z,73.90
2018-09-10T19:04:39.405Z,74.60
2018-09-10T19:07:08.499Z,75.10
2018-09-10T19:09:37.566Z,76.00
2018-09-10T19:12:06.881Z,76.60
2018-09-10T19:14:35.917Z,77.20
2018-09-10T19:17:04.923Z,77.80
2018-09-10T19:19:33.955Z,78.40
2018-09-10T19:22:02.981Z,78.90
2018-09-10T19:24:32.762Z,79.20
2018-09-10T19:27:02.009Z,79.50
2018-09-10T19:29:31.024Z,80.10
2018-09-10T19:32:00.076Z,80.40
2018-09-10T19:34:29.186Z,80.70
2018-09-10T19:36:58.306Z,81.40
2018-09-10T19:39:27.299Z,81.80
2018-09-10T19:41:56.331Z,82.00
2018-09-10T19:44:25.328Z,82.50
2018-09-10T19:46:54.342Z,82.80
2018-09-10T19:49:23.345Z,82.80
2018-09-10T19:51:52.736Z,82.90
2018-09-10T19:54:22.177Z,82.90
2018-09-10T19:56:51.213Z,82.80
2018-09-10T19:59:20.301Z,82.80
2018-09-10T20:01:49.395Z,82.90
2018-09-10T20:04:18.528Z,82.90
2018-09-10T20:06:47.512Z,83.10
2018-09-10T20:09:16.569Z,83.20
2018-09-10T20:11:45.573Z,83.30
2018-09-10T20:14:14.574Z,83.90
2018-09-10T20:16:43.622Z,83.60
2018-09-10T20:19:12.984Z,83.70
2018-09-10T20:21:41.991Z,83.70
2018-09-10T20:24:11.014Z,84.00
2018-09-10T20:26:40.436Z,84.30
2018-09-10T20:29:09.503Z,84.40
2018-09-10T20:31:38.547Z,84.80
2018-09-10T20:34:08.961Z,85.10
2018-09-10T20:36:38.881Z,85.30
2018-09-10T20:39:11.492Z,85.50
2018-09-10T20:41:40.684Z,86.10
2018-09-10T20:44:10.215Z,86.60
2018-09-10T20:46:40.279Z,87.00
2018-09-10T20:49:09.289Z,87.20
2018-09-10T20:51:39.007Z,87.50
2018-09-10T20:54:07.994Z,87.70
2018-09-10T20:56:36.994Z,88.00
2018-09-10T20:59:06.038Z,88.30
2018-09-10T21:01:35.072Z,88.50
2018-09-10T21:04:04.107Z,88.70
2018-09-10T21:06:33.149Z,89.40
2018-09-10T21:09:02.233Z,88.80
2018-09-10T21:11:31.236Z,90.00
2018-09-10T21:14:00.303Z,90.20
2018-09-10T21:16:29.485Z,90.30
2018-09-10T21:18:58.524Z,90.30
2018-09-10T21:21:27.608Z,90.40
2018-09-10T21:23:56.629Z,90.60
2018-09-10T21:26:25.695Z,90.70
2018-09-10T21:28:55.301Z,90.70
2018-09-10T21:31:24.310Z,90.80
2018-09-10T21:33:53.346Z,90.90
2018-09-10T21:36:22.404Z,91.20
2018-09-10T21:38:51.779Z,91.30
2018-09-10T21:41:20.850Z,91.40
2018-09-10T21:43:49.891Z,91.50
2018-09-10T21:46:18.908Z,91.70
2018-09-10T21:48:48.034Z,91.70
2018-09-10T21:51:17.030Z,91.80
2018-09-10T21:53:46.129Z,91.90
2018-09-10T21:56:15.332Z,92.10
2018-09-10T21:58:44.310Z,92.30
2018-09-10T22:01:13.695Z,92.50
2018-09-10T22:03:42.728Z,92.60
2018-09-10T22:06:11.960Z,93.10
2018-09-10T22:08:40.961Z,92.70
2018-09-10T22:11:09.984Z,92.90
2018-09-10T22:13:39.029Z,93.10
2018-09-10T22:16:08.068Z,93.40
2018-09-10T22:18:37.138Z,93.60
2018-09-10T22:21:06.144Z,93.60
2018-09-10T22:23:35.225Z,93.70
2018-09-10T22:26:04.203Z,93.70
2018-09-10T22:28:33.320Z,93.90
2018-09-10T22:31:02.338Z,93.90
2018-09-10T22:33:31.521Z,94.10
2018-09-10T22:36:00.531Z,94.00
2018-09-10T22:38:29.630Z,94.10
2018-09-10T22:40:58.656Z,94.20
2018-09-10T22:43:28.032Z,94.30
2018-09-10T22:45:57.127Z,94.10
2018-09-10T22:48:26.160Z,94.10
2018-09-10T22:50:55.515Z,93.90
2018-09-10T22:53:24.938Z,94.20
2018-09-10T22:55:53.958Z,94.30
2018-09-10T22:58:22.976Z,94.40
2018-09-10T23:00:52.608Z,94.40
2018-09-10T23:03:21.609Z,94.50
2018-09-10T23:05:50.628Z,94.60
2018-09-10T23:08:19.660Z,94.70
2018-09-10T23:10:48.662Z,94.60
2018-09-10T23:13:17.683Z,95.00
2018-09-10T23:15:46.731Z,95.40
2018-09-10T23:18:15.764Z,95.70
2018-09-10T23:20:44.825Z,96.10
2018-09-10T23:23:14.036Z,96.30
2018-09-10T23:25:43.137Z,96.20
2018-09-10T23:28:12.287Z,96.40
2018-09-10T23:30:41.397Z,96.50
2018-09-10T23:33:10.418Z,96.50
2018-09-10T23:35:46.145Z,96.80
2018-09-10T23:38:15.179Z,97.00
2018-09-10T23:40:44.331Z,96.70
2018-09-10T23:43:13.314Z,96.40
2018-09-10T23:45:42.556Z,96.20
2018-09-10T23:48:11.556Z,96.10
2018-09-10T23:50:40.596Z,96.30
2018-09-10T23:53:09.611Z,96.80
2018-09-10T23:55:38.644Z,96.40
2018-09-10T23:58:07.698Z,96.20
